sensor_id;sensor_type;location;lat;lon;timestamp;temperature;humidity
35894;DHT22;21994;48.204;16.516;2023-01-20T00:02:02;-0.80;99.90
35894;DHT22;21994;48.204;16.516;2023-01-20T00:04:28;-0.70;99.90
35894;DHT22;21994;48.204;16.516;2023-01-20T00:06:53;-0.70;99.90
35894;DHT22;21994;48.204;16.516;2023-01-20T00:09:19;-0.80;99.90
35894;DHT22;21994;48.204;16.516;2023-01-20T00:11:46;-0.80;99.90
35894;DHT22;21994;48.204;16.516;2023-01-20T00:14:12;-0.90;99.90
35894;DHT22;21994;48.204;16.516;2023-01-20T00:16:37;-0.90;99.90
35894;DHT22;21994;48.204;16.516;2023-01-20T00:19:03;-0.90;99.90
35894;DHT22;21994;48.204;16.516;2023-01-20T00:21:29;-0.90;99.90
35894;DHT22;21994;48.204;16.516;2023-01-20T00:23:57;-1.00;99.90
35894;DHT22;21994;48.204;16.516;2023-01-20T00:26:23;-1.00;99.90
35894;DHT22;21994;48.204;16.516;2023-01-20T00:28:51;-1.10;99.90
35894;DHT22;21994;48.204;16.516;2023-01-20T00:31:19;-1.10;99.90
35894;DHT22;21994;48.204;16.516;2023-01-20T00:33:49;-1.20;99.90
35894;DHT22;21994;48.204;16.516;2023-01-20T00:36:16;-1.20;99.90
35894;DHT22;21994;48.204;16.516;2023-01-20T00:38:43;-1.30;99.90
35894;DHT22;21994;48.204;16.516;2023-01-20T00:41:09;-1.20;99.90
35894;DHT22;21994;48.204;16.516;2023-01-20T00:43:36;-1.20;99.90
35894;DHT22;21994;48.204;16.516;2023-01-20T00:46:03;-1.30;99.90
35894;DHT22;21994;48.204;16.516;2023-01-20T00:48:29;-1.40;99.90
35894;DHT22;21994;48.204;16.516;2023-01-20T00:50:55;-1.40;99.90
35894;DHT22;21994;48.204;16.516;2023-01-20T00:53:21;-1.50;99.90
35894;DHT22;21994;48.204;16.516;2023-01-20T00:55:47;-1.60;99.90
35894;DHT22;21994;48.204;16.516;2023-01-20T00:58:13;-1.70;99.90
35894;DHT22;21994;48.204;16.516;2023-01-20T01:00:39;-1.80;99.90
35894;DHT22;21994;48.204;16.516;2023-01-20T01:03:04;-1.90;99.90
35894;DHT22;21994;48.204;16.516;2023-01-20T01:05:30;-2.00;99.90
35894;DHT22;21994;48.204;16.516;2023-01-20T01:07:57;-2.20;99.90
35894;DHT22;21994;48.204;16.516;2023-01-20T01:10:22;-2.30;99.90
35894;DHT22;21994;48.204;16.516;2023-01-20T01:12:48;-2.40;99.90
35894;DHT22;21994;48.204;16.516;2023-01-20T01:15:14;-2.40;99.90
35894;DHT22;21994;48.204;16.516;2023-01-20T01:17:41;-2.50;99.90
35894;DHT22;21994;48.204;16.516;2023-01-20T01:20:09;-2.60;99.90
35894;DHT22;21994;48.204;16.516;2023-01-20T01:22:37;-2.60;99.90
35894;DHT22;21994;48.204;16.516;2023-01-20T01:25:03;-2.70;99.90
35894;DHT22;21994;48.204;16.516;2023-01-20T01:27:29;-2.60;99.90
35894;DHT22;21994;48.204;16.516;2023-01-20T01:29:55;-2.40;99.90
35894;DHT22;21994;48.204;16.516;2023-01-20T01:32:21;-2.10;99.90
35894;DHT22;21994;48.204;16.516;2023-01-20T01:34:47;-1.90;99.90
35894;DHT22;21994;48.204;16.516;2023-01-20T01:37:13;-1.80;99.90
35894;DHT22;21994;48.204;16.516;2023-01-20T01:39:39;-1.70;99.90
35894;DHT22;21994;48.204;16.516;2023-01-20T01:42:11;-1.60;99.90
35894;DHT22;21994;48.204;16.516;2023-01-20T01:47:36;-1.70;99.90
35894;DHT22;21994;48.204;16.516;2023-01-20T01:50:04;-1.80;99.90
35894;DHT22;21994;48.204;16.516;2023-01-20T01:52:31;-1.90;99.90
35894;DHT22;21994;48.204;16.516;2023-01-20T01:54:57;-2.00;99.90
35894;DHT22;21994;48.204;16.516;2023-01-20T01:57:23;-2.10;99.90
35894;DHT22;21994;48.204;16.516;2023-01-20T01:59:49;-2.20;99.90
35894;DHT22;21994;48.204;16.516;2023-01-20T02:02:15;-2.40;99.90
35894;DHT22;21994;48.204;16.516;2023-01-20T02:04:42;-2.40;99.90
35894;DHT22;21994;48.204;16.516;2023-01-20T02:07:09;-2.50;99.90
35894;DHT22;21994;48.204;16.516;2023-01-20T02:09:37;-2.60;99.90
35894;DHT22;21994;48.204;16.516;2023-01-20T02:12:05;-2.60;99.90
35894;DHT22;21994;48.204;16.516;2023-01-20T02:14:33;-2.70;99.90
35894;DHT22;21994;48.204;16.516;2023-01-20T02:20:01;-2.80;99.90
35894;DHT22;21994;48.204;16.516;2023-01-20T02:22:56;-2.80;99.90
35894;DHT22;21994;48.204;16.516;2023-01-20T02:36:57;-2.60;99.90
35894;DHT22;21994;48.204;16.516;2023-01-20T02:39:29;-2.70;99.90
35894;DHT22;21994;48.204;16.516;2023-01-20T02:47:30;-2.80;99.90
35894;DHT22;21994;48.204;16.516;2023-01-20T02:52:48;-2.80;99.90
35894;DHT22;21994;48.204;16.516;2023-01-20T02:55:21;-2.80;99.90
35894;DHT22;21994;48.204;16.516;2023-01-20T02:58:00;-2.90;99.90
35894;DHT22;21994;48.204;16.516;2023-01-20T03:00:31;-2.90;99.90
35894;DHT22;21994;48.204;16.516;2023-01-20T03:03:00;-2.90;99.90
35894;DHT22;21994;48.204;16.516;2023-01-20T03:05:29;-2.80;99.90
35894;DHT22;21994;48.204;16.516;2023-01-20T03:07:58;-2.70;99.90
35894;DHT22;21994;48.204;16.516;2023-01-20T03:10:26;-2.60;99.90
35894;DHT22;21994;48.204;16.516;2023-01-20T03:12:56;-2.40;99.90
35894;DHT22;21994;48.204;16.516;2023-01-20T03:15:24;-2.30;99.90
35894;DHT22;21994;48.204;16.516;2023-01-20T03:17:59;-2.20;99.90
35894;DHT22;21994;48.204;16.516;2023-01-20T03:20:24;-2.10;99.90
35894;DHT22;21994;48.204;16.516;2023-01-20T03:22:50;-2.00;99.90
35894;DHT22;21994;48.204;16.516;2023-01-20T03:25:16;-1.90;99.90
35894;DHT22;21994;48.204;16.516;2023-01-20T03:27:43;-1.90;99.90
35894;DHT22;21994;48.204;16.516;2023-01-20T03:30:13;-1.70;99.90
35894;DHT22;21994;48.204;16.516;2023-01-20T03:32:40;-1.60;99.90
35894;DHT22;21994;48.204;16.516;2023-01-20T03:35:07;-1.50;99.90
35894;DHT22;21994;48.204;16.516;2023-01-20T03:37:33;-1.50;99.90
35894;DHT22;21994;48.204;16.516;2023-01-20T03:39:59;-1.40;99.90
35894;DHT22;21994;48.204;16.516;2023-01-20T03:45:36;-1.30;99.90
35894;DHT22;21994;48.204;16.516;2023-01-20T03:50:46;-1.20;99.90
35894;DHT22;21994;48.204;16.516;2023-01-20T03:53:42;-1.20;99.90
35894;DHT22;21994;48.204;16.516;2023-01-20T03:56:16;-1.10;99.90
35894;DHT22;21994;48.204;16.516;2023-01-20T03:58:47;-1.10;99.90
35894;DHT22;21994;48.204;16.516;2023-01-20T04:01:15;-1.10;99.90
35894;DHT22;21994;48.204;16.516;2023-01-20T04:03:44;-1.20;99.90
35894;DHT22;21994;48.204;16.516;2023-01-20T04:06:11;-1.20;99.90
35894;DHT22;21994;48.204;16.516;2023-01-20T04:08:49;-1.20;99.90
35894;DHT22;21994;48.204;16.516;2023-01-20T04:11:19;-1.20;99.90
35894;DHT22;21994;48.204;16.516;2023-01-20T04:13:45;-1.30;99.90
35894;DHT22;21994;48.204;16.516;2023-01-20T04:16:12;-1.30;99.90
35894;DHT22;21994;48.204;16.516;2023-01-20T04:18:42;-1.40;99.90
35894;DHT22;21994;48.204;16.516;2023-01-20T04:21:12;-1.40;99.90
35894;DHT22;21994;48.204;16.516;2023-01-20T04:23:42;-1.40;99.90
35894;DHT22;21994;48.204;16.516;2023-01-20T04:26:10;-1.30;99.90
35894;DHT22;21994;48.204;16.516;2023-01-20T04:28:36;-1.30;99.90
35894;DHT22;21994;48.204;16.516;2023-01-20T04:31:01;-1.40;99.90
35894;DHT22;21994;48.204;16.516;2023-01-20T04:33:27;-1.50;99.90
35894;DHT22;21994;48.204;16.516;2023-01-20T04:35:53;-1.50;99.90
35894;DHT22;21994;48.204;16.516;2023-01-20T04:38:19;-1.60;99.90
35894;DHT22;21994;48.204;16.516;2023-01-20T04:40:45;-1.60;99.90
35894;DHT22;21994;48.204;16.516;2023-01-20T04:43:10;-1.70;99.90
35894;DHT22;21994;48.204;16.516;2023-01-20T04:45:36;-1.70;99.90
35894;DHT22;21994;48.204;16.516;2023-01-20T04:48:06;-1.70;99.90
35894;DHT22;21994;48.204;16.516;2023-01-20T04:50:36;-1.70;99.90
35894;DHT22;21994;48.204;16.516;2023-01-20T04:53:02;-1.70;99.90
35894;DHT22;21994;48.204;16.516;2023-01-20T04:55:28;-1.60;99.90
35894;DHT22;21994;48.204;16.516;2023-01-20T04:57:54;-1.60;99.90
35894;DHT22;21994;48.204;16.516;2023-01-20T05:00:20;-1.60;99.90
35894;DHT22;21994;48.204;16.516;2023-01-20T05:02:46;-1.50;99.90
35894;DHT22;21994;48.204;16.516;2023-01-20T05:05:12;-1.50;99.90
35894;DHT22;21994;48.204;16.516;2023-01-20T05:07:38;-1.50;99.90
35894;DHT22;21994;48.204;16.516;2023-01-20T05:10:04;-1.50;99.90
35894;DHT22;21994;48.204;16.516;2023-01-20T05:12:30;-1.50;99.90
35894;DHT22;21994;48.204;16.516;2023-01-20T05:14:56;-1.50;99.90
35894;DHT22;21994;48.204;16.516;2023-01-20T05:17:21;-1.40;99.90
35894;DHT22;21994;48.204;16.516;2023-01-20T05:19:47;-1.30;99.90
35894;DHT22;21994;48.204;16.516;2023-01-20T05:22:13;-1.30;99.90
35894;DHT22;21994;48.204;16.516;2023-01-20T05:24:39;-1.30;99.90
35894;DHT22;21994;48.204;16.516;2023-01-20T05:27:04;-1.30;99.90
35894;DHT22;21994;48.204;16.516;2023-01-20T05:29:30;-1.30;99.90
35894;DHT22;21994;48.204;16.516;2023-01-20T05:31:56;-1.20;99.90
35894;DHT22;21994;48.204;16.516;2023-01-20T05:34:22;-1.20;99.90
35894;DHT22;21994;48.204;16.516;2023-01-20T05:36:52;-1.20;99.90
35894;DHT22;21994;48.204;16.516;2023-01-20T05:39:18;-1.20;99.90
35894;DHT22;21994;48.204;16.516;2023-01-20T05:41:44;-1.20;99.90
35894;DHT22;21994;48.204;16.516;2023-01-20T05:44:11;-1.10;99.90
35894;DHT22;21994;48.204;16.516;2023-01-20T05:46:37;-1.20;99.90
35894;DHT22;21994;48.204;16.516;2023-01-20T05:49:03;-1.20;99.90
35894;DHT22;21994;48.204;16.516;2023-01-20T05:51:29;-1.20;99.90
35894;DHT22;21994;48.204;16.516;2023-01-20T05:53:56;-1.10;99.90
35894;DHT22;21994;48.204;16.516;2023-01-20T05:56:24;-1.20;99.90
35894;DHT22;21994;48.204;16.516;2023-01-20T05:58:53;-1.20;99.90
35894;DHT22;21994;48.204;16.516;2023-01-20T06:01:25;-1.10;99.90
35894;DHT22;21994;48.204;16.516;2023-01-20T06:03:51;-1.10;99.90
35894;DHT22;21994;48.204;16.516;2023-01-20T06:06:17;-1.10;99.90
35894;DHT22;21994;48.204;16.516;2023-01-20T06:08:43;-1.10;99.90
35894;DHT22;21994;48.204;16.516;2023-01-20T06:11:13;-1.00;99.90
35894;DHT22;21994;48.204;16.516;2023-01-20T06:13:40;-0.90;99.90
35894;DHT22;21994;48.204;16.516;2023-01-20T06:16:05;-1.00;99.90
35894;DHT22;21994;48.204;16.516;2023-01-20T06:18:32;-1.00;99.90
35894;DHT22;21994;48.204;16.516;2023-01-20T06:20:58;-0.90;99.90
35894;DHT22;21994;48.204;16.516;2023-01-20T06:23:25;-0.90;99.90
35894;DHT22;21994;48.204;16.516;2023-01-20T06:25:58;-0.90;99.90
35894;DHT22;21994;48.204;16.516;2023-01-20T06:28:29;-0.90;99.90
35894;DHT22;21994;48.204;16.516;2023-01-20T06:30:57;-0.80;99.90
35894;DHT22;21994;48.204;16.516;2023-01-20T06:33:30;-0.80;99.90
35894;DHT22;21994;48.204;16.516;2023-01-20T06:35:57;-0.80;99.90
35894;DHT22;21994;48.204;16.516;2023-01-20T06:38:23;-0.70;99.90
35894;DHT22;21994;48.204;16.516;2023-01-20T06:40:57;-0.80;99.90
35894;DHT22;21994;48.204;16.516;2023-01-20T06:43:23;-0.70;99.90
35894;DHT22;21994;48.204;16.516;2023-01-20T06:45:56;-0.70;99.90
35894;DHT22;21994;48.204;16.516;2023-01-20T06:48:32;-0.60;99.90
35894;DHT22;21994;48.204;16.516;2023-01-20T06:51:05;-0.60;99.90
35894;DHT22;21994;48.204;16.516;2023-01-20T06:53:37;-0.60;99.90
35894;DHT22;21994;48.204;16.516;2023-01-20T06:56:03;-0.50;99.90
35894;DHT22;21994;48.204;16.516;2023-01-20T06:58:29;-0.50;99.90
35894;DHT22;21994;48.204;16.516;2023-01-20T07:00:56;-0.50;99.90
35894;DHT22;21994;48.204;16.516;2023-01-20T07:03:23;-0.50;99.90
35894;DHT22;21994;48.204;16.516;2023-01-20T07:05:57;-0.40;99.90
35894;DHT22;21994;48.204;16.516;2023-01-20T07:08:24;-0.40;99.90
35894;DHT22;21994;48.204;16.516;2023-01-20T07:10:50;-0.30;99.90
35894;DHT22;21994;48.204;16.516;2023-01-20T07:13:18;-0.40;99.90
35894;DHT22;21994;48.204;16.516;2023-01-20T07:15:44;-0.40;99.90
35894;DHT22;21994;48.204;16.516;2023-01-20T07:18:10;-0.40;99.90
35894;DHT22;21994;48.204;16.516;2023-01-20T07:20:36;-0.20;99.90
35894;DHT22;21994;48.204;16.516;2023-01-20T07:23:03;-0.30;99.90
35894;DHT22;21994;48.204;16.516;2023-01-20T07:25:29;-0.20;99.90
35894;DHT22;21994;48.204;16.516;2023-01-20T07:27:55;-0.20;99.90
35894;DHT22;21994;48.204;16.516;2023-01-20T07:30:22;-0.20;99.90
35894;DHT22;21994;48.204;16.516;2023-01-20T07:32:49;-0.20;99.90
35894;DHT22;21994;48.204;16.516;2023-01-20T07:35:14;-0.10;99.90
35894;DHT22;21994;48.204;16.516;2023-01-20T07:37:43;-0.10;99.90
35894;DHT22;21994;48.204;16.516;2023-01-20T07:40:09;-0.10;99.90
35894;DHT22;21994;48.204;16.516;2023-01-20T07:42:36;-0.10;99.90
35894;DHT22;21994;48.204;16.516;2023-01-20T07:45:02;-0.10;99.90
35894;DHT22;21994;48.204;16.516;2023-01-20T07:47:28;-0.10;99.90
35894;DHT22;21994;48.204;16.516;2023-01-20T07:49:54;-0.10;99.90
35894;DHT22;21994;48.204;16.516;2023-01-20T07:52:22;-0.10;99.90
35894;DHT22;21994;48.204;16.516;2023-01-20T07:54:48;-0.10;99.90
35894;DHT22;21994;48.204;16.516;2023-01-20T07:57:14;0.00;99.90
35894;DHT22;21994;48.204;16.516;2023-01-20T07:59:40;0.00;99.90
35894;DHT22;21994;48.204;16.516;2023-01-20T08:02:07;0.00;99.90
35894;DHT22;21994;48.204;16.516;2023-01-20T08:04:33;0.00;99.90
35894;DHT22;21994;48.204;16.516;2023-01-20T08:06:59;0.00;99.90
35894;DHT22;21994;48.204;16.516;2023-01-20T08:09:25;0.10;99.90
35894;DHT22;21994;48.204;16.516;2023-01-20T08:11:54;0.20;99.90
35894;DHT22;21994;48.204;16.516;2023-01-20T08:14:20;0.20;99.90
35894;DHT22;21994;48.204;16.516;2023-01-20T08:16:46;0.20;99.90
35894;DHT22;21994;48.204;16.516;2023-01-20T08:19:11;0.30;99.90
35894;DHT22;21994;48.204;16.516;2023-01-20T08:21:37;0.30;99.90
35894;DHT22;21994;48.204;16.516;2023-01-20T08:24:03;0.30;99.90
35894;DHT22;21994;48.204;16.516;2023-01-20T08:26:31;0.30;99.90
35894;DHT22;21994;48.204;16.516;2023-01-20T08:29:03;0.40;99.90
35894;DHT22;21994;48.204;16.516;2023-01-20T08:31:30;0.40;99.90
35894;DHT22;21994;48.204;16.516;2023-01-20T08:33:56;0.50;99.90
35894;DHT22;21994;48.204;16.516;2023-01-20T08:36:26;0.50;99.90
35894;DHT22;21994;48.204;16.516;2023-01-20T08:38:54;0.50;99.90
35894;DHT22;21994;48.204;16.516;2023-01-20T08:41:25;0.60;99.90
35894;DHT22;21994;48.204;16.516;2023-01-20T08:43:52;0.60;99.90
35894;DHT22;21994;48.204;16.516;2023-01-20T08:46:19;0.60;99.90
35894;DHT22;21994;48.204;16.516;2023-01-20T08:48:46;0.60;99.90
35894;DHT22;21994;48.204;16.516;2023-01-20T08:51:14;0.60;99.90
35894;DHT22;21994;48.204;16.516;2023-01-20T08:53:41;0.60;99.90
35894;DHT22;21994;48.204;16.516;2023-01-20T08:56:07;0.70;99.90
35894;DHT22;21994;48.204;16.516;2023-01-20T08:58:34;0.70;99.90
35894;DHT22;21994;48.204;16.516;2023-01-20T09:01:00;0.80;99.90
35894;DHT22;21994;48.204;16.516;2023-01-20T09:03:26;0.90;99.90
35894;DHT22;21994;48.204;16.516;2023-01-20T09:05:52;0.90;99.90
35894;DHT22;21994;48.204;16.516;2023-01-20T09:08:19;1.00;99.90
35894;DHT22;21994;48.204;16.516;2023-01-20T09:10:45;1.00;99.90
35894;DHT22;21994;48.204;16.516;2023-01-20T09:13:11;1.00;99.90
35894;DHT22;21994;48.204;16.516;2023-01-20T09:15:37;1.00;99.90
35894;DHT22;21994;48.204;16.516;2023-01-20T09:18:03;0.90;99.90
35894;DHT22;21994;48.204;16.516;2023-01-20T09:20:28;1.00;99.90
35894;DHT22;21994;48.204;16.516;2023-01-20T09:22:55;1.10;99.90
35894;DHT22;21994;48.204;16.516;2023-01-20T09:25:21;1.10;99.90
35894;DHT22;21994;48.204;16.516;2023-01-20T09:27:46;1.10;99.90
35894;DHT22;21994;48.204;16.516;2023-01-20T09:30:20;1.20;99.90
35894;DHT22;21994;48.204;16.516;2023-01-20T09:32:47;1.30;99.90
35894;DHT22;21994;48.204;16.516;2023-01-20T09:35:14;1.40;99.90
35894;DHT22;21994;48.204;16.516;2023-01-20T09:37:39;1.40;99.90
35894;DHT22;21994;48.204;16.516;2023-01-20T09:40:25;1.60;99.90
35894;DHT22;21994;48.204;16.516;2023-01-20T09:46:27;1.60;99.90
35894;DHT22;21994;48.204;16.516;2023-01-20T09:52:26;1.70;99.90
35894;DHT22;21994;48.204;16.516;2023-01-20T09:55:14;1.70;99.90
35894;DHT22;21994;48.204;16.516;2023-01-20T09:57:46;1.80;99.90
35894;DHT22;21994;48.204;16.516;2023-01-20T10:00:14;1.80;99.90
35894;DHT22;21994;48.204;16.516;2023-01-20T10:02:44;1.80;99.90
35894;DHT22;21994;48.204;16.516;2023-01-20T10:05:12;1.90;99.90
35894;DHT22;21994;48.204;16.516;2023-01-20T10:12:52;2.20;99.90
35894;DHT22;21994;48.204;16.516;2023-01-20T10:15:26;2.30;99.90
35894;DHT22;21994;48.204;16.516;2023-01-20T10:18:01;2.50;99.90
35894;DHT22;21994;48.204;16.516;2023-01-20T10:20:41;2.60;99.90
35894;DHT22;21994;48.204;16.516;2023-01-20T10:26:06;2.80;99.90
35894;DHT22;21994;48.204;16.516;2023-01-20T10:28:35;2.80;99.90
35894;DHT22;21994;48.204;16.516;2023-01-20T10:31:04;3.10;99.90
35894;DHT22;21994;48.204;16.516;2023-01-20T10:33:31;3.40;99.90
35894;DHT22;21994;48.204;16.516;2023-01-20T10:35:59;3.50;99.90
35894;DHT22;21994;48.204;16.516;2023-01-20T10:38:28;3.60;99.90
35894;DHT22;21994;48.204;16.516;2023-01-20T10:43:35;3.50;99.90
35894;DHT22;21994;48.204;16.516;2023-01-20T10:57:47;3.10;99.90
35894;DHT22;21994;48.204;16.516;2023-01-20T11:00:24;3.40;99.90
35894;DHT22;21994;48.204;16.516;2023-01-20T11:02:51;3.50;99.90
35894;DHT22;21994;48.204;16.516;2023-01-20T11:05:19;3.50;99.90
35894;DHT22;21994;48.204;16.516;2023-01-20T11:07:47;3.50;99.90
35894;DHT22;21994;48.204;16.516;2023-01-20T11:12:44;3.30;99.90
35894;DHT22;21994;48.204;16.516;2023-01-20T11:20:48;4.00;99.90
35894;DHT22;21994;48.204;16.516;2023-01-20T11:25:59;4.50;99.90
35894;DHT22;21994;48.204;16.516;2023-01-20T11:28:55;4.70;99.90
35894;DHT22;21994;48.204;16.516;2023-01-20T11:31:35;4.40;99.90
35894;DHT22;21994;48.204;16.516;2023-01-20T11:34:07;4.10;99.90
35894;DHT22;21994;48.204;16.516;2023-01-20T11:36:41;3.90;99.90
35894;DHT22;21994;48.204;16.516;2023-01-20T11:39:21;3.70;99.90
35894;DHT22;21994;48.204;16.516;2023-01-20T11:41:50;3.70;99.90
35894;DHT22;21994;48.204;16.516;2023-01-20T11:47:15;3.80;99.90
35894;DHT22;21994;48.204;16.516;2023-01-20T11:49:47;3.60;99.90
35894;DHT22;21994;48.204;16.516;2023-01-20T11:52:30;3.30;99.90
35894;DHT22;21994;48.204;16.516;2023-01-20T11:55:12;3.10;99.90
35894;DHT22;21994;48.204;16.516;2023-01-20T11:57:43;3.00;99.90
35894;DHT22;21994;48.204;16.516;2023-01-20T12:08:25;2.90;99.90
35894;DHT22;21994;48.204;16.516;2023-01-20T12:10:55;3.00;99.90
35894;DHT22;21994;48.204;16.516;2023-01-20T12:13:59;3.00;99.90
35894;DHT22;21994;48.204;16.516;2023-01-20T12:16:40;2.90;99.90
35894;DHT22;21994;48.204;16.516;2023-01-20T12:19:09;2.90;99.90
35894;DHT22;21994;48.204;16.516;2023-01-20T12:21:42;3.00;99.90
35894;DHT22;21994;48.204;16.516;2023-01-20T12:24:15;3.10;99.90
35894;DHT22;21994;48.204;16.516;2023-01-20T12:26:45;3.10;99.90
35894;DHT22;21994;48.204;16.516;2023-01-20T12:29:16;3.10;99.90
35894;DHT22;21994;48.204;16.516;2023-01-20T12:31:46;3.00;99.90
35894;DHT22;21994;48.204;16.516;2023-01-20T12:34:26;3.00;99.90
35894;DHT22;21994;48.204;16.516;2023-01-20T12:49:47;3.10;99.90
35894;DHT22;21994;48.204;16.516;2023-01-20T12:52:42;3.10;99.90
35894;DHT22;21994;48.204;16.516;2023-01-20T12:55:20;3.00;99.90
35894;DHT22;21994;48.204;16.516;2023-01-20T13:00:37;2.90;99.90
35894;DHT22;21994;48.204;16.516;2023-01-20T13:14:14;2.80;99.90
35894;DHT22;21994;48.204;16.516;2023-01-20T13:16:52;2.90;99.90
35894;DHT22;21994;48.204;16.516;2023-01-20T13:21:54;2.80;99.90
35894;DHT22;21994;48.204;16.516;2023-01-20T13:24:20;2.80;99.90
35894;DHT22;21994;48.204;16.516;2023-01-20T13:26:56;2.80;99.90
35894;DHT22;21994;48.204;16.516;2023-01-20T13:32:01;2.70;99.90
35894;DHT22;21994;48.204;16.516;2023-01-20T13:41:57;2.60;99.90
35894;DHT22;21994;48.204;16.516;2023-01-20T13:44:37;2.60;99.90
35894;DHT22;21994;48.204;16.516;2023-01-20T13:47:07;2.60;99.90
35894;DHT22;21994;48.204;16.516;2023-01-20T13:52:09;2.60;99.90
35894;DHT22;21994;48.204;16.516;2023-01-20T13:54:41;2.70;99.90
35894;DHT22;21994;48.204;16.516;2023-01-20T13:59:48;2.70;99.90
35894;DHT22;21994;48.204;16.516;2023-01-20T14:02:21;2.70;99.90
35894;DHT22;21994;48.204;16.516;2023-01-20T14:04:48;2.70;99.90
35894;DHT22;21994;48.204;16.516;2023-01-20T14:07:24;2.70;99.90
35894;DHT22;21994;48.204;16.516;2023-01-20T14:09:51;2.70;99.90
35894;DHT22;21994;48.204;16.516;2023-01-20T14:12:17;2.70;99.90
35894;DHT22;21994;48.204;16.516;2023-01-20T14:14:43;2.70;99.90
35894;DHT22;21994;48.204;16.516;2023-01-20T14:17:14;2.80;99.90
35894;DHT22;21994;48.204;16.516;2023-01-20T14:19:44;2.70;99.90
35894;DHT22;21994;48.204;16.516;2023-01-20T14:22:19;2.80;99.90
35894;DHT22;21994;48.204;16.516;2023-01-20T14:24:49;2.80;99.90
35894;DHT22;21994;48.204;16.516;2023-01-20T14:29:49;2.80;99.90
35894;DHT22;21994;48.204;16.516;2023-01-20T14:34:49;2.70;99.90
35894;DHT22;21994;48.204;16.516;2023-01-20T14:39:55;2.70;99.90
35894;DHT22;21994;48.204;16.516;2023-01-20T14:42:25;2.70;99.90
35894;DHT22;21994;48.204;16.516;2023-01-20T14:44:51;2.70;99.90
35894;DHT22;21994;48.204;16.516;2023-01-20T14:47:19;2.70;99.90
35894;DHT22;21994;48.204;16.516;2023-01-20T14:49:46;2.60;99.90
35894;DHT22;21994;48.204;16.516;2023-01-20T14:52:13;2.60;99.90
35894;DHT22;21994;48.204;16.516;2023-01-20T14:54:48;2.50;99.90
35894;DHT22;21994;48.204;16.516;2023-01-20T14:57:27;2.50;99.90
35894;DHT22;21994;48.204;16.516;2023-01-20T15:05:19;2.40;99.90
35894;DHT22;21994;48.204;16.516;2023-01-20T15:13:41;2.40;99.90
35894;DHT22;21994;48.204;16.516;2023-01-20T15:16:18;2.40;99.90
35894;DHT22;21994;48.204;16.516;2023-01-20T15:21:53;2.30;99.90
35894;DHT22;21994;48.204;16.516;2023-01-20T15:24:26;2.30;99.90
35894;DHT22;21994;48.204;16.516;2023-01-20T15:27:16;2.30;99.90
35894;DHT22;21994;48.204;16.516;2023-01-20T15:32:45;2.20;99.90
35894;DHT22;21994;48.204;16.516;2023-01-20T15:35:11;2.20;99.90
35894;DHT22;21994;48.204;16.516;2023-01-20T15:37:40;2.20;99.90
35894;DHT22;21994;48.204;16.516;2023-01-20T15:40:22;2.20;99.90
35894;DHT22;21994;48.204;16.516;2023-01-20T15:42:49;2.20;99.90
35894;DHT22;21994;48.204;16.516;2023-01-20T15:45:16;2.20;99.90
35894;DHT22;21994;48.204;16.516;2023-01-20T15:47:43;2.20;99.90
35894;DHT22;21994;48.204;16.516;2023-01-20T15:50:11;2.20;99.90
35894;DHT22;21994;48.204;16.516;2023-01-20T15:52:41;2.10;99.90
35894;DHT22;21994;48.204;16.516;2023-01-20T15:55:10;2.20;99.90
35894;DHT22;21994;48.204;16.516;2023-01-20T15:57:39;2.20;99.90
35894;DHT22;21994;48.204;16.516;2023-01-20T16:00:06;2.10;99.90
35894;DHT22;21994;48.204;16.516;2023-01-20T16:02:35;2.10;99.90
35894;DHT22;21994;48.204;16.516;2023-01-20T16:05:00;2.20;99.90
35894;DHT22;21994;48.204;16.516;2023-01-20T16:07:27;2.20;99.90
35894;DHT22;21994;48.204;16.516;2023-01-20T16:09:53;2.20;99.90
35894;DHT22;21994;48.204;16.516;2023-01-20T16:12:19;2.20;99.90
35894;DHT22;21994;48.204;16.516;2023-01-20T16:14:44;2.20;99.90
35894;DHT22;21994;48.204;16.516;2023-01-20T16:17:18;2.20;99.90
35894;DHT22;21994;48.204;16.516;2023-01-20T16:19:45;2.20;99.90
35894;DHT22;21994;48.204;16.516;2023-01-20T16:22:12;2.20;99.90
35894;DHT22;21994;48.204;16.516;2023-01-20T16:24:50;2.20;99.90
35894;DHT22;21994;48.204;16.516;2023-01-20T16:27:16;2.20;99.90
35894;DHT22;21994;48.204;16.516;2023-01-20T16:29:44;2.20;99.90
35894;DHT22;21994;48.204;16.516;2023-01-20T16:32:10;2.20;99.90
35894;DHT22;21994;48.204;16.516;2023-01-20T16:34:36;2.30;99.90
35894;DHT22;21994;48.204;16.516;2023-01-20T16:37:02;2.20;99.90
35894;DHT22;21994;48.204;16.516;2023-01-20T16:39:28;2.20;99.90
35894;DHT22;21994;48.204;16.516;2023-01-20T16:41:54;2.20;99.90
35894;DHT22;21994;48.204;16.516;2023-01-20T16:44:19;2.20;99.90
35894;DHT22;21994;48.204;16.516;2023-01-20T16:46:45;2.20;99.90
35894;DHT22;21994;48.204;16.516;2023-01-20T16:49:13;2.20;99.90
35894;DHT22;21994;48.204;16.516;2023-01-20T16:51:39;2.20;99.90
35894;DHT22;21994;48.204;16.516;2023-01-20T16:54:05;2.20;99.90
35894;DHT22;21994;48.204;16.516;2023-01-20T16:56:31;2.20;99.90
35894;DHT22;21994;48.204;16.516;2023-01-20T16:58:58;2.20;99.90
35894;DHT22;21994;48.204;16.516;2023-01-20T17:01:28;2.20;99.90
35894;DHT22;21994;48.204;16.516;2023-01-20T17:03:55;2.20;99.90
35894;DHT22;21994;48.204;16.516;2023-01-20T17:06:26;2.20;99.90
35894;DHT22;21994;48.204;16.516;2023-01-20T17:08:53;2.20;99.90
35894;DHT22;21994;48.204;16.516;2023-01-20T17:11:21;2.20;99.90
35894;DHT22;21994;48.204;16.516;2023-01-20T17:13:50;2.20;99.90
35894;DHT22;21994;48.204;16.516;2023-01-20T17:16:17;2.20;99.90
35894;DHT22;21994;48.204;16.516;2023-01-20T17:18:43;2.20;99.90
35894;DHT22;21994;48.204;16.516;2023-01-20T17:21:13;2.30;99.90
35894;DHT22;21994;48.204;16.516;2023-01-20T17:23:39;2.20;99.90
35894;DHT22;21994;48.204;16.516;2023-01-20T17:26:05;2.20;99.90
35894;DHT22;21994;48.204;16.516;2023-01-20T17:28:32;2.20;99.90
35894;DHT22;21994;48.204;16.516;2023-01-20T17:31:01;2.20;99.90
35894;DHT22;21994;48.204;16.516;2023-01-20T17:33:28;2.20;99.90
35894;DHT22;21994;48.204;16.516;2023-01-20T17:35:55;2.30;99.90
35894;DHT22;21994;48.204;16.516;2023-01-20T17:38:21;2.30;99.90
35894;DHT22;21994;48.204;16.516;2023-01-20T17:40:48;2.30;99.90
35894;DHT22;21994;48.204;16.516;2023-01-20T17:43:14;2.30;99.90
35894;DHT22;21994;48.204;16.516;2023-01-20T17:45:40;2.30;99.90
35894;DHT22;21994;48.204;16.516;2023-01-20T17:48:07;2.20;99.90
35894;DHT22;21994;48.204;16.516;2023-01-20T17:50:32;2.30;99.90
35894;DHT22;21994;48.204;16.516;2023-01-20T17:52:58;2.20;99.90
35894;DHT22;21994;48.204;16.516;2023-01-20T17:55:24;2.20;99.90
35894;DHT22;21994;48.204;16.516;2023-01-20T17:57:50;2.20;99.90
35894;DHT22;21994;48.204;16.516;2023-01-20T18:00:16;2.20;99.90
35894;DHT22;21994;48.204;16.516;2023-01-20T18:02:42;2.20;99.90
35894;DHT22;21994;48.204;16.516;2023-01-20T18:05:08;2.20;99.90